Airfield :
LOGIN :

Register | Disclaimer

   EN    FR    IT 

 










Legend :    VFR   Marginal VFR   IFR   Intensive IFR   Very Intensive IFR
Visi :
Ceiling :
>= 8 km
>= 3000ft
5 to 8 km
1000 to 3000 ft
1500m to 5 km
500 to 1000 ft
800 to 1500m
200 to 500 ft
< 800m
< 200 ft
Symbols :   Thunderstorms  Fog  Heavy snow  Heavy precipitations  Wind > 20 kt
SIGMETs :     Misc.  Thunderstorms  Icing  Turbulence  Mountain Waves  Volcanic Ashes







- Airport Elevation : 257 ft
- IATA code : MAN
- Download approach charts


EGCC - Manchester

CURRENT METAR :
  • 241550Z 24004KT 190V270 9999 BKN017 21/17 Q1016

EXPIRED METARs :
  • 241520Z AUTO VRB02KT 9999 BKN016 21/17 Q1016 TEMPO BKN014
  • 241450Z AUTO 21005KT 140V250 9999 BKN014 21/17 Q1016 TEMPO BKN015
  • 241420Z AUTO 23005KT 180V260 9000 OVC014 20/17 Q1016 TEMPO BKN015
  • 241350Z AUTO VRB02KT 9999 OVC014 20/17 Q1016 TEMPO BKN015
  • 241320Z 21004KT 170V240 8000 BKN015 20/17 Q1016 TEMPO BKN014

TAF AMD TAF EGCC
Valid from the 24 at 13:00 until the 25 at 18:00 UTC


241318Z 2413/2518 VRB03KT 9999 SCT025
TEMPO 2413/2418 BKN012
PROB30
TEMPO 2413/2414 3000 +SHRA TSRA
PROB30
TEMPO 2414/2418 7000 SHRA
BECMG 2418/2421 8000
PROB30 2423/2504 4000 BR BKN004
TEMPO 2504/2512 RA
PROB40
TEMPO 2504/2509 4000 +RA BKN004
BECMG 2509/2512 9999
TEMPO 2512/2518 8000 -RA BKN010
ATIS : +44 161 499 2324
No reported NOTAMs for that airfield.
1 SIGMET reported for the London FIR (EGTT) :
 
Embedded thunderstorms
EGTT SIGMET 06 VALID 241400/241700 EGRR
EGTT LONDON FIR EMBD TS FCST WI N5429 E00041 - N5357 W00159 - N5500 W00259 - N5500 E00106 - N5429 E00041 TOP FL320 MOV NE 20KT NC=



MET'MAP, your aeronautical weather chart ! - Copyright ORBIFLY December 2007 - Disclaimer

ORBIFLY MET'MAP TEAM :

Programming & Development : Alexandra Zaïnal
Concept & Development : Baudouin d'Aumeries
Co-Development & Prog : Marc-Olivier Méhu
Technical & hardware support : Manuel Goepfert

Contact : metmap@orbifly.com




SOURCES & CREDITS :

   NOAA